Time;durP1;ratioP1;P1;durP2;ratioP2;P2;SDS_P1;SDS_P2;PMS_P1;PMS_P2;Temp;Humidity;BMP_temperature;BMP_pressure;BME280_temperature;BME280_humidity;BME280_pressure;Samples;Min_cycle;Max_cycle;Signal;HPM_P1;HPM_P2
2023/12/17 00:00:33;;;;;;;10.00;4.40;;;;;;;2.59;100.00;98514.09;5035236;28;20207;-68
2023/12/17 00:03:01;;;;;;;10.30;4.90;;;;;;;2.78;100.00;98509.69;5036143;28;20228;-68
2023/12/17 00:05:27;;;;;;;9.73;4.77;;;;;;;2.50;100.00;98505.88;5035841;28;20204;-68
2023/12/17 00:07:54;;;;;;;11.97;5.13;;;;;;;2.45;100.00;98511.28;5035430;28;20211;-68
2023/12/17 00:10:21;;;;;;;18.67;7.13;;;;;;;2.47;100.00;98517.28;5037201;28;20214;-68
2023/12/17 00:12:48;;;;;;;11.47;5.40;;;;;;;2.46;100.00;98522.56;5037848;28;20862;-68
2023/12/17 00:15:14;;;;;;;13.20;5.03;;;;;;;2.46;100.00;98518.19;5037615;28;21068;-68
2023/12/17 00:17:41;;;;;;;10.60;5.20;;;;;;;2.49;100.00;98518.03;5037350;28;20679;-68
2023/12/17 00:20:10;;;;;;;11.50;5.00;;;;;;;2.59;100.00;98519.28;5036411;28;20629;-68
2023/12/17 00:22:36;;;;;;;10.30;5.20;;;;;;;2.39;100.00;98521.16;5036880;28;21206;-68
2023/12/17 00:25:03;;;;;;;9.47;4.27;;;;;;;2.46;100.00;98518.19;5036522;28;20286;-68
2023/12/17 00:27:30;;;;;;;11.50;5.13;;;;;;;2.24;100.00;98529.69;5037605;28;20205;-68
2023/12/17 00:29:56;;;;;;;10.43;5.40;;;;;;;2.24;100.00;98531.44;5036810;28;20219;-68
2023/12/17 00:32:23;;;;;;;9.33;5.13;;;;;;;2.10;100.00;98523.44;5037517;28;20217;-68
2023/12/17 00:34:49;;;;;;;9.90;4.70;;;;;;;1.90;100.00;98513.94;5037695;28;20206;-68
2023/12/17 00:37:17;;;;;;;9.10;4.30;;;;;;;1.95;100.00;98516.34;5037171;28;20209;-68
2023/12/17 00:39:43;;;;;;;8.40;4.80;;;;;;;2.04;100.00;98516.75;5035995;28;20197;-68
2023/12/17 00:42:10;;;;;;;9.07;4.20;;;;;;;1.98;100.00;98511.81;5037376;28;20728;-68
2023/12/17 00:44:37;;;;;;;12.73;4.40;;;;;;;1.98;100.00;98519.63;5037633;28;20569;-68
2023/12/17 00:47:03;;;;;;;12.40;4.47;;;;;;;1.88;100.00;98520.13;5037138;28;20780;-68
2023/12/17 00:49:30;;;;;;;9.27;4.83;;;;;;;1.77;100.00;98516.31;5036431;28;20204;-68
2023/12/17 00:51:56;;;;;;;10.57;5.77;;;;;;;1.87;100.00;98511.50;5037151;28;20224;-68
2023/12/17 00:54:24;;;;;;;9.17;4.80;;;;;;;2.07;100.00;98497.56;5036690;28;20209;-68
2023/12/17 00:56:50;;;;;;;8.73;4.40;;;;;;;2.08;100.00;98501.88;5036690;28;20693;-68
2023/12/17 00:59:17;;;;;;;10.27;4.30;;;;;;;2.03;100.00;98498.63;5036846;28;21110;-68
2023/12/17 01:01:43;;;;;;;10.43;4.77;;;;;;;2.02;100.00;98496.94;5035371;28;21264;-69
2023/12/17 01:04:10;;;;;;;11.37;4.97;;;;;;;2.07;100.00;98500.19;5036928;28;20613;-68
2023/12/17 01:06:37;;;;;;;11.37;4.93;;;;;;;2.14;100.00;98505.03;5036511;28;20232;-68
2023/12/17 01:09:04;;;;;;;11.47;4.60;;;;;;;1.94;100.00;98506.84;5036689;28;20214;-68
2023/12/17 01:11:32;;;;;;;14.17;5.20;;;;;;;1.87;100.00;98500.22;5035787;28;20220;-68
2023/12/17 01:13:58;;;;;;;8.73;5.00;;;;;;;1.90;100.00;98500.13;5037247;28;20206;-68
2023/12/17 01:16:24;;;;;;;11.63;5.20;;;;;;;1.96;100.00;98503.28;5036764;28;20202;-68
2023/12/17 01:18:51;;;;;;;12.03;5.20;;;;;;;1.97;100.00;98506.72;5036076;28;20205;-68
2023/12/17 01:21:17;;;;;;;11.20;4.67;;;;;;;1.93;100.00;98505.16;5036128;28;20217;-68
2023/12/17 01:23:44;;;;;;;13.03;4.33;;;;;;;1.90;100.00;98505.31;5036214;28;20706;-68
2023/12/17 01:26:18;;;;;;;10.17;4.40;;;;;;;2.17;100.00;98511.84;5036128;28;20197;-68
2023/12/17 01:28:46;;;;;;;10.50;4.93;;;;;;;1.95;100.00;98508.56;5036463;28;20282;-68
2023/12/17 01:31:13;;;;;;;9.40;4.90;;;;;;;1.90;100.00;98510.50;5036078;28;20230;-68
2023/12/17 01:33:39;;;;;;;12.87;5.57;;;;;;;2.05;100.00;98515.00;5036212;28;20197;-68
2023/12/17 01:36:06;;;;;;;10.93;5.53;;;;;;;1.89;100.00;98520.06;5036213;28;20213;-68
2023/12/17 01:38:33;;;;;;;12.23;5.10;;;;;;;1.77;100.00;98514.59;5035910;28;20221;-69
2023/12/17 01:40:59;;;;;;;12.10;5.47;;;;;;;1.86;100.00;98514.16;5035552;28;20232;-68
2023/12/17 01:43:26;;;;;;;9.90;4.50;;;;;;;1.98;100.00;98516.19;5036216;28;20733;-68
2023/12/17 01:45:54;;;;;;;9.23;4.23;;;;;;;2.11;100.00;98520.75;5035537;28;20211;-68
2023/12/17 01:48:22;;;;;;;11.20;4.60;;;;;;;2.05;100.00;98531.44;5036626;28;20679;-68
2023/12/17 01:50:49;;;;;;;10.27;4.60;;;;;;;1.97;100.00;98537.91;5035321;28;20224;-68
2023/12/17 01:53:17;;;;;;;13.97;5.37;;;;;;;1.93;100.00;98541.56;5036516;28;20558;-68
2023/12/17 01:55:46;;;;;;;8.47;4.77;;;;;;;2.01;100.00;98549.84;5036097;28;20211;-68
2023/12/17 01:58:15;;;;;;;11.33;4.57;;;;;;;2.08;100.00;98553.88;5036540;28;20236;-68
2023/12/17 02:00:42;;;;;;;7.50;4.47;;;;;;;1.94;100.00;98557.09;5035656;28;20339;-68
2023/12/17 02:03:10;;;;;;;10.07;5.00;;;;;;;1.98;100.00;98566.44;5035047;28;20225;-68
2023/12/17 02:05:37;;;;;;;14.20;4.97;;;;;;;1.85;100.00;98560.09;5035944;28;20208;-68
2023/12/17 02:08:04;;;;;;;9.13;4.80;;;;;;;1.85;100.00;98551.47;5035951;28;20203;-68
2023/12/17 02:10:31;;;;;;;11.73;4.80;;;;;;;1.95;100.00;98561.38;5035142;28;20316;-68
2023/12/17 02:12:59;;;;;;;10.23;4.50;;;;;;;1.85;100.00;98549.69;5035583;28;20201;-68
2023/12/17 02:15:25;;;;;;;10.90;4.87;;;;;;;1.79;100.00;98554.31;5036417;28;20212;-70
2023/12/17 02:17:52;;;;;;;15.77;5.43;;;;;;;1.80;100.00;98555.19;5035532;28;20260;-68
2023/12/17 02:20:20;;;;;;;9.43;5.00;;;;;;;1.99;100.00;98543.91;5035353;28;20205;-68
2023/12/17 02:22:49;;;;;;;14.50;6.10;;;;;;;2.02;100.00;98543.75;5035539;28;20783;-68
2023/12/17 02:25:17;;;;;;;10.00;4.93;;;;;;;1.88;100.00;98535.72;5035888;28;20202;-68
2023/12/17 02:27:44;;;;;;;8.33;4.57;;;;;;;1.83;100.00;98535.09;5036101;28;20197;-68
2023/12/17 02:30:11;;;;;;;10.43;5.03;;;;;;;1.92;100.00;98529.47;5035677;28;20283;-68
2023/12/17 02:32:38;;;;;;;10.23;4.73;;;;;;;1.68;100.00;98530.59;5035736;28;20221;-68
2023/12/17 02:35:05;;;;;;;12.83;5.97;;;;;;;1.73;100.00;98541.59;5034925;28;20216;-68
2023/12/17 02:37:32;;;;;;;12.10;4.67;;;;;;;1.63;100.00;98535.16;5035886;28;20205;-68
2023/12/17 02:39:58;;;;;;;11.00;5.03;;;;;;;1.57;100.00;98537.16;5034763;28;20209;-68
2023/12/17 02:42:26;;;;;;;10.57;4.97;;;;;;;1.55;100.00;98536.38;5035621;28;20248;-68
2023/12/17 02:44:53;;;;;;;15.53;6.53;;;;;;;1.66;100.00;98542.78;5035328;28;20201;-68
2023/12/17 02:47:19;;;;;;;8.47;4.50;;;;;;;1.72;100.00;98534.72;5035269;28;21229;-68
2023/12/17 02:49:46;;;;;;;10.77;4.83;;;;;;;1.78;100.00;98531.84;5038933;28;20593;-68
2023/12/17 02:52:13;;;;;;;11.83;5.50;;;;;;;1.72;100.00;98531.28;5038960;28;20721;-68
2023/12/17 02:54:39;;;;;;;10.57;4.00;;;;;;;1.55;100.00;98520.78;5039776;28;20208;-69
2023/12/17 02:57:06;;;;;;;10.53;4.57;;;;;;;1.68;100.00;98516.72;5038561;28;20213;-68
2023/12/17 02:59:33;;;;;;;8.03;4.17;;;;;;;1.74;100.00;98517.31;5039127;28;20212;-68
2023/12/17 03:02:00;;;;;;;12.57;4.70;;;;;;;1.62;100.00;98517.84;5038094;28;20243;-68
2023/12/17 03:04:26;;;;;;;11.30;4.40;;;;;;;1.57;100.00;98522.41;5039207;28;20596;-68
2023/12/17 03:06:53;;;;;;;10.83;4.57;;;;;;;1.54;100.00;98522.56;5038440;28;20205;-68
2023/12/17 03:09:19;;;;;;;12.27;5.13;;;;;;;1.70;100.00;98527.91;5039908;28;21066;-68
2023/12/17 03:11:46;;;;;;;10.60;4.83;;;;;;;1.64;100.00;98518.63;5038469;28;20228;-68
2023/12/17 03:14:12;;;;;;;10.37;5.23;;;;;;;1.47;100.00;98517.69;5038487;28;20200;-68
2023/12/17 03:16:42;;;;;;;9.33;5.20;;;;;;;1.57;100.00;98517.22;5039467;28;20202;-68
2023/12/17 03:19:08;;;;;;;8.20;4.20;;;;;;;1.46;100.00;98509.03;5039188;28;20248;-68
2023/12/17 03:21:35;;;;;;;12.60;5.37;;;;;;;1.45;100.00;98502.19;5038424;28;20221;-68
2023/12/17 03:24:01;;;;;;;9.70;4.73;;;;;;;1.59;100.00;98499.81;5037823;28;20232;-68
2023/12/17 03:26:28;;;;;;;10.30;4.83;;;;;;;1.62;100.00;98494.47;5039098;28;20217;-68
2023/12/17 03:28:54;;;;;;;9.50;4.90;;;;;;;1.65;100.00;98494.31;5038269;28;20209;-68
2023/12/17 03:31:21;;;;;;;8.73;4.90;;;;;;;1.48;100.00;98502.03;5036677;28;20220;-68
2023/12/17 03:33:48;;;;;;;9.83;5.57;;;;;;;1.69;100.00;98500.22;5038631;28;20208;-68
2023/12/17 03:36:15;;;;;;;10.70;4.97;;;;;;;1.56;100.00;98499.09;5038178;28;20205;-68
2023/12/17 03:38:43;;;;;;;8.80;4.70;;;;;;;1.72;100.00;98500.94;5038508;28;20205;-68
2023/12/17 03:41:20;;;;;;;12.67;4.60;;;;;;;1.90;100.00;98505.31;5037433;28;20221;-68
2023/12/17 03:43:47;;;;;;;12.07;5.23;;;;;;;1.71;100.00;98499.25;5038583;28;20238;-68
2023/12/17 03:46:14;;;;;;;10.37;5.00;;;;;;;1.59;100.00;98509.34;5037483;28;20220;-68
2023/12/17 03:48:40;;;;;;;11.43;5.53;;;;;;;1.61;100.00;98513.56;5039001;28;20738;-68
2023/12/17 03:51:08;;;;;;;11.60;5.17;;;;;;;1.80;100.00;98508.41;5037622;28;20228;-68
2023/12/17 03:53:34;;;;;;;8.10;4.40;;;;;;;1.67;100.00;98505.50;5038486;28;20547;-68
2023/12/17 03:56:01;;;;;;;11.83;5.13;;;;;;;1.56;100.00;98507.72;5037441;28;20204;-68
2023/12/17 03:58:27;;;;;;;12.07;4.87;;;;;;;1.62;100.00;98504.88;5038317;28;20197;-68
2023/12/17 04:00:54;;;;;;;9.33;4.80;;;;;;;1.54;100.00;98500.91;5037653;28;20240;-68
2023/12/17 04:03:20;;;;;;;9.27;4.30;;;;;;;1.54;100.00;98491.38;5038261;28;20228;-68
2023/12/17 04:05:47;;;;;;;10.30;5.00;;;;;;;1.59;100.00;98489.41;5037710;28;20210;-68
2023/12/17 04:08:15;;;;;;;10.60;4.50;;;;;;;1.60;100.00;98490.25;5037606;28;21270;-68
2023/12/17 04:10:41;;;;;;;9.53;4.07;;;;;;;1.47;100.00;98500.34;5037641;28;20220;-68
2023/12/17 04:13:07;;;;;;;9.53;4.97;;;;;;;1.49;100.00;98501.13;5037662;28;20214;-68
2023/12/17 04:15:34;;;;;;;9.17;4.50;;;;;;;1.36;100.00;98507.78;5038319;28;20216;-68
2023/12/17 04:18:00;;;;;;;9.77;4.87;;;;;;;1.39;100.00;98509.41;5037332;28;20205;-68
2023/12/17 04:20:27;;;;;;;8.90;4.47;;;;;;;1.50;100.00;98497.63;5037111;28;20208;-68
2023/12/17 04:22:53;;;;;;;11.90;4.60;;;;;;;1.53;100.00;98499.25;5039059;28;20228;-68
2023/12/17 04:25:22;;;;;;;11.63;5.03;;;;;;;1.56;100.00;98486.94;5037447;28;20690;-68
2023/12/17 04:27:48;;;;;;;8.20;3.97;;;;;;;1.53;100.00;98486.25;5037444;28;20304;-68
2023/12/17 04:30:15;;;;;;;10.27;4.77;;;;;;;1.52;100.00;98482.78;5036496;28;20263;-68
2023/12/17 04:32:41;;;;;;;10.20;5.20;;;;;;;1.39;100.00;98486.84;5038193;28;20225;-68
2023/12/17 04:35:09;;;;;;;9.00;4.83;;;;;;;1.44;100.00;98492.69;5036271;28;20208;-68
2023/12/17 04:37:35;;;;;;;12.73;4.93;;;;;;;1.47;100.00;98479.56;5037925;28;20201;-68
2023/12/17 04:40:03;;;;;;;7.37;4.30;;;;;;;1.41;100.00;98477.25;5035068;28;20220;-68
2023/12/17 04:42:30;;;;;;;10.37;5.33;;;;;;;1.59;100.00;98484.22;5036853;28;20274;-68
2023/12/17 04:44:57;;;;;;;13.83;5.17;;;;;;;1.40;100.00;98488.53;5036593;28;20271;-68
2023/12/17 04:47:23;;;;;;;12.20;5.47;;;;;;;1.44;100.00;98482.28;5037541;28;20453;-68
2023/12/17 04:49:50;;;;;;;9.60;4.73;;;;;;;1.33;100.00;98481.91;5036609;28;20208;-68
2023/12/17 04:52:16;;;;;;;9.00;4.67;;;;;;;1.17;100.00;98485.25;5036270;28;20759;-68
2023/12/17 04:54:43;;;;;;;11.60;4.70;;;;;;;1.38;100.00;98471.34;5037006;28;20200;-68
2023/12/17 04:57:09;;;;;;;11.87;5.03;;;;;;;1.40;100.00;98474.69;5036365;28;20204;-68
2023/12/17 04:59:37;;;;;;;11.67;5.13;;;;;;;1.48;100.00;98476.06;5036048;28;20234;-68
2023/12/17 05:02:04;;;;;;;9.43;4.20;;;;;;;1.49;100.00;98474.28;5036562;28;20360;-68
2023/12/17 05:04:30;;;;;;;12.10;4.97;;;;;;;1.36;100.00;98470.56;5037046;28;20228;-68
2023/12/17 05:06:57;;;;;;;10.30;4.30;;;;;;;1.45;100.00;98485.72;5036395;28;20212;-68
2023/12/17 05:09:23;;;;;;;8.17;4.50;;;;;;;1.46;100.00;98483.06;5035805;28;20212;-68
2023/12/17 05:11:50;;;;;;;11.23;5.33;;;;;;;1.49;100.00;98488.13;5036298;28;20229;-68
2023/12/17 05:14:16;;;;;;;9.73;4.63;;;;;;;1.56;100.00;98491.31;5036500;28;20196;-68
2023/12/17 05:16:44;;;;;;;13.63;4.63;;;;;;;1.66;100.00;98479.59;5036559;28;20197;-68
2023/12/17 05:19:11;;;;;;;11.30;5.00;;;;;;;1.47;100.00;98489.94;5035771;28;20209;-68
2023/12/17 05:21:37;;;;;;;10.87;4.73;;;;;;;1.54;100.00;98488.78;5036941;28;20260;-68
2023/12/17 05:24:04;;;;;;;10.40;4.40;;;;;;;1.56;100.00;98480.91;5036346;28;20225;-68
2023/12/17 05:26:30;;;;;;;11.57;4.97;;;;;;;1.47;100.00;98469.16;5036466;28;20208;-69
2023/12/17 05:28:57;;;;;;;10.33;4.80;;;;;;;1.57;100.00;98467.84;5037007;28;20679;-69
2023/12/17 05:31:23;;;;;;;8.90;4.80;;;;;;;1.56;100.00;98462.72;5034918;28;20614;-68
2023/12/17 05:33:51;;;;;;;9.77;4.97;;;;;;;1.67;100.00;98460.47;5036218;28;20208;-68
2023/12/17 05:36:18;;;;;;;10.47;5.00;;;;;;;1.52;100.00;98467.22;5036267;28;20202;-68
2023/12/17 05:38:45;;;;;;;9.93;4.30;;;;;;;1.50;100.00;98469.06;5037010;28;20215;-68
2023/12/17 05:41:12;;;;;;;8.80;4.20;;;;;;;1.50;100.00;98463.00;5034462;28;20783;-68
2023/12/17 05:43:38;;;;;;;7.30;4.03;;;;;;;1.45;100.00;98463.22;5036468;28;20221;-68
2023/12/17 05:46:05;;;;;;;11.83;5.17;;;;;;;1.51;100.00;98451.69;5036250;28;20220;-68
2023/12/17 05:48:32;;;;;;;8.20;3.77;;;;;;;1.54;100.00;98456.75;5036015;28;20200;-68
2023/12/17 05:50:59;;;;;;;9.43;4.70;;;;;;;1.60;100.00;98459.91;5035891;28;20236;-68
2023/12/17 05:53:26;;;;;;;8.30;4.60;;;;;;;1.43;100.00;98451.19;5036285;28;20226;-68
2023/12/17 05:55:53;;;;;;;9.17;4.40;;;;;;;1.47;100.00;98443.19;5036067;28;20219;-68
2023/12/17 05:58:20;;;;;;;11.83;5.00;;;;;;;1.56;100.00;98447.13;5036143;28;20215;-68
2023/12/17 06:00:46;;;;;;;11.73;5.10;;;;;;;1.50;100.00;98445.66;5035772;28;20229;-68
2023/12/17 06:03:13;;;;;;;11.97;5.30;;;;;;;1.55;100.00;98438.47;5035994;28;20206;-68
2023/12/17 06:05:39;;;;;;;14.90;5.50;;;;;;;1.47;100.00;98432.78;5036244;28;20200;-68
2023/12/17 06:08:07;;;;;;;8.80;4.17;;;;;;;1.47;100.00;98432.78;5035608;28;20217;-68
2023/12/17 06:10:34;;;;;;;13.67;5.47;;;;;;;1.41;100.00;98438.28;5035623;28;20265;-68
2023/12/17 06:13:00;;;;;;;13.10;6.33;;;;;;;1.43;100.00;98441.63;5035667;28;20216;-68
2023/12/17 06:15:26;;;;;;;11.47;5.53;;;;;;;1.43;100.00;98438.22;5035960;28;20661;-68
2023/12/17 06:17:53;;;;;;;11.80;5.23;;;;;;;1.47;100.00;98453.56;5036336;28;20241;-68
2023/12/17 06:20:19;;;;;;;10.63;5.30;;;;;;;1.50;100.00;98442.22;5035259;28;20201;-68
2023/12/17 06:22:46;;;;;;;13.80;6.37;;;;;;;1.62;100.00;98442.50;5036434;28;20222;-68
2023/12/17 06:25:14;;;;;;;10.60;5.63;;;;;;;1.61;100.00;98446.00;5039199;28;20221;-68
2023/12/17 06:27:40;;;;;;;11.83;6.57;;;;;;;1.48;100.00;98452.66;5040104;28;20580;-68
2023/12/17 06:30:08;;;;;;;13.43;5.20;;;;;;;1.47;100.00;98458.78;5038767;28;20573;-68
2023/12/17 06:32:34;;;;;;;9.60;4.63;;;;;;;1.51;100.00;98455.13;5040250;28;20282;-68
2023/12/17 06:35:01;;;;;;;11.40;4.93;;;;;;;1.48;100.00;98450.06;5039721;28;20216;-68
2023/12/17 06:37:27;;;;;;;13.87;4.87;;;;;;;1.47;100.00;98463.97;5040155;28;20213;-69
2023/12/17 06:39:54;;;;;;;14.10;5.63;;;;;;;1.52;100.00;98455.97;5039469;28;20216;-69
2023/12/17 06:42:22;;;;;;;9.07;5.00;;;;;;;1.71;100.00;98465.47;5039793;28;20271;-69
2023/12/17 06:44:48;;;;;;;11.23;5.00;;;;;;;1.53;100.00;98461.09;5039826;28;20243;-69
2023/12/17 06:47:17;;;;;;;13.57;6.43;;;;;;;1.48;100.00;98465.66;5040232;28;20209;-69
2023/12/17 06:49:43;;;;;;;13.37;5.93;;;;;;;1.50;100.00;98463.84;5039949;28;20617;-69
2023/12/17 06:52:10;;;;;;;10.97;5.03;;;;;;;1.48;100.00;98473.47;5039469;28;20229;-69
2023/12/17 06:54:36;;;;;;;14.83;5.80;;;;;;;1.54;100.00;98470.59;5040154;28;20201;-69
2023/12/17 06:57:03;;;;;;;11.43;5.40;;;;;;;1.29;100.00;98471.75;5040353;28;20213;-69
2023/12/17 06:59:31;;;;;;;12.77;6.37;;;;;;;1.21;100.00;98460.84;5039452;28;20201;-69
2023/12/17 07:01:57;;;;;;;10.63;5.53;;;;;;;1.11;100.00;98458.69;5040241;28;20243;-69
2023/12/17 07:04:23;;;;;;;11.13;5.00;;;;;;;1.27;100.00;98458.84;5038475;28;20229;-69
2023/12/17 07:06:50;;;;;;;10.63;5.50;;;;;;;1.39;100.00;98455.69;5039009;28;20201;-69
2023/12/17 07:09:16;;;;;;;11.53;6.07;;;;;;;1.33;100.00;98460.31;5038292;28;20201;-69
2023/12/17 07:11:43;;;;;;;9.80;5.23;;;;;;;1.32;100.00;98462.06;5038820;28;20221;-70
2023/12/17 07:14:09;;;;;;;9.93;5.20;;;;;;;1.45;100.00;98465.81;5037330;28;20207;-70
2023/12/17 07:16:38;;;;;;;10.17;4.70;;;;;;;1.28;100.00;98463.09;5038821;28;20213;-70
2023/12/17 07:19:04;;;;;;;11.37;5.40;;;;;;;1.31;100.00;98467.31;5038943;28;20241;-69
2023/12/17 07:21:31;;;;;;;12.97;5.50;;;;;;;1.31;100.00;98462.13;5037987;28;20225;-69
2023/12/17 07:23:57;;;;;;;14.63;5.47;;;;;;;1.38;100.00;98464.38;5037518;28;20735;-69
2023/12/17 07:26:24;;;;;;;10.40;5.13;;;;;;;1.40;100.00;98461.72;5037957;28;20587;-69
2023/12/17 07:28:50;;;;;;;14.87;6.67;;;;;;;1.40;100.00;98459.09;5037587;28;20205;-68
2023/12/17 07:31:17;;;;;;;10.73;4.23;;;;;;;2.56;100.00;98449.19;5037575;28;20228;-69
2023/12/17 07:33:45;;;;;;;10.93;5.50;;;;;;;2.85;100.00;98445.13;5038767;28;20217;-69
2023/12/17 07:36:11;;;;;;;13.30;6.17;;;;;;;2.45;100.00;98450.63;5037871;28;20666;-69
2023/12/17 07:38:38;;;;;;;10.30;5.67;;;;;;;2.19;100.00;98453.63;5038282;28;20217;-68
2023/12/17 07:41:05;;;;;;;11.10;5.80;;;;;;;2.05;100.00;98452.59;5036844;28;20329;-69
2023/12/17 07:43:31;;;;;;;10.50;4.97;;;;;;;1.92;100.00;98451.47;5039233;28;20228;-69
2023/12/17 07:45:58;;;;;;;13.13;5.27;;;;;;;1.85;100.00;98450.09;5038153;28;20223;-69
2023/12/17 07:48:24;;;;;;;9.00;5.10;;;;;;;1.93;100.00;98447.97;5037794;28;20215;-69
2023/12/17 07:50:54;;;;;;;10.70;5.23;;;;;;;2.07;100.00;98446.41;5038354;28;20232;-69
2023/12/17 07:53:21;;;;;;;9.13;4.60;;;;;;;1.97;100.00;98444.31;5037720;28;20212;-69
2023/12/17 07:55:48;;;;;;;11.50;5.50;;;;;;;1.98;100.00;98446.81;5038961;28;20288;-69
2023/12/17 07:58:15;;;;;;;10.47;5.00;;;;;;;2.03;100.00;98450.06;5038361;28;20270;-69
2023/12/17 08:00:41;;;;;;;14.20;6.17;;;;;;;2.11;100.00;98449.69;5036824;28;20205;-69
2023/12/17 08:03:08;;;;;;;13.83;5.77;;;;;;;2.15;100.00;98451.25;5037470;28;21019;-70
2023/12/17 08:05:34;;;;;;;22.13;7.10;;;;;;;2.17;100.00;98447.66;5038193;28;20330;-69
2023/12/17 08:08:03;;;;;;;30.47;9.77;;;;;;;2.33;100.00;98443.41;5037641;28;20213;-70
2023/12/17 08:10:30;;;;;;;20.87;8.47;;;;;;;2.17;100.00;98445.06;5036901;28;20305;-72
2023/12/17 08:12:56;;;;;;;18.87;7.73;;;;;;;2.21;100.00;98454.38;5037757;28;20212;-69
2023/12/17 08:15:23;;;;;;;29.37;9.87;;;;;;;2.22;100.00;98452.66;5036923;28;20212;-70
2023/12/17 08:17:50;;;;;;;51.50;16.10;;;;;;;2.17;100.00;98446.81;5037729;28;20209;-70
2023/12/17 08:20:17;;;;;;;36.63;12.33;;;;;;;2.32;100.00;98453.88;5036671;28;20209;-70
2023/12/17 08:22:44;;;;;;;54.50;16.03;;;;;;;2.23;100.00;98456.91;5037742;28;20225;-70
2023/12/17 08:25:12;;;;;;;32.17;11.73;;;;;;;2.47;100.00;98447.03;5037102;28;20232;-70
2023/12/17 08:27:38;;;;;;;15.33;7.53;;;;;;;2.09;100.00;98452.38;5038063;28;20201;-70
2023/12/17 08:30:06;;;;;;;16.67;8.03;;;;;;;2.36;100.00;98447.63;5036674;28;20205;-70
2023/12/17 08:32:33;;;;;;;15.87;8.20;;;;;;;2.18;100.00;98471.94;5036561;28;20227;-70
2023/12/17 08:35:00;;;;;;;16.17;7.37;;;;;;;2.48;100.00;98464.34;5037307;28;20203;-70
2023/12/17 08:37:26;;;;;;;17.40;10.37;;;;;;;2.72;100.00;98467.50;5037609;28;20220;-70
2023/12/17 08:39:53;;;;;;;37.07;13.10;;;;;;;2.65;100.00;98460.91;5036850;28;20197;-70
2023/12/17 08:42:21;;;;;;;20.93;9.30;;;;;;;2.86;100.00;98460.66;5036347;28;20229;-70
2023/12/17 08:44:48;;;;;;;16.70;6.30;;;;;;;2.80;100.00;98457.53;5036792;28;20231;-70
2023/12/17 08:47:15;;;;;;;40.87;9.30;;;;;;;2.89;100.00;98460.53;5036637;28;20209;-70
2023/12/17 08:49:42;;;;;;;39.60;9.53;;;;;;;3.02;100.00;98466.81;5036599;28;20209;-69
2023/12/17 08:52:08;;;;;;;63.30;15.07;;;;;;;2.88;100.00;98460.59;5036729;28;20225;-69
2023/12/17 08:54:35;;;;;;;42.93;11.77;;;;;;;2.98;100.00;98457.47;5036932;28;20220;-70
2023/12/17 08:57:01;;;;;;;105.17;20.47;;;;;;;3.04;100.00;98449.31;5037035;28;20205;-70
2023/12/17 08:59:31;;;;;;;71.23;15.60;;;;;;;3.18;100.00;98446.84;5036494;28;20202;-68
2023/12/17 09:01:57;;;;;;;32.30;9.73;;;;;;;2.94;100.00;98440.31;5037373;28;20247;-70
2023/12/17 09:04:23;;;;;;;39.17;15.80;;;;;;;3.01;100.00;98441.66;5034567;28;20261;-69
2023/12/17 09:06:50;;;;;;;15.27;7.47;;;;;;;3.18;100.00;98450.31;5034818;28;20206;-69
2023/12/17 09:09:16;;;;;;;53.23;13.07;;;;;;;3.29;100.00;98444.53;5035032;28;20609;-69
2023/12/17 09:11:43;;;;;;;15.57;5.67;;;;;;;3.12;100.00;98441.97;5036345;28;20219;-69
2023/12/17 09:14:09;;;;;;;13.47;5.40;;;;;;;3.16;100.00;98453.91;5036142;28;20240;-68
2023/12/17 09:16:38;;;;;;;27.87;13.60;;;;;;;3.02;100.00;98445.97;5034835;28;20202;-68
2023/12/17 09:19:04;;;;;;;49.67;12.40;;;;;;;3.25;100.00;98450.84;5035826;28;20551;-69
2023/12/17 09:21:31;;;;;;;26.87;8.87;;;;;;;3.22;100.00;98444.03;5034027;28;20232;-69
2023/12/17 09:23:58;;;;;;;20.07;7.13;;;;;;;2.97;100.00;98442.75;5036657;28;20201;-68
2023/12/17 09:26:26;;;;;;;35.80;14.60;;;;;;;3.42;100.00;98437.78;5031960;28;21096;-68
2023/12/17 09:28:53;;;;;;;21.00;8.43;;;;;;;3.28;100.00;98438.47;5035541;28;20209;-69
2023/12/17 09:31:20;;;;;;;30.93;10.30;;;;;;;3.63;100.00;98438.31;5035622;28;20256;-69
2023/12/17 09:33:48;;;;;;;29.97;7.57;;;;;;;3.37;100.00;98442.38;5036360;28;20197;-68
2023/12/17 09:36:16;;;;;;;29.53;12.10;;;;;;;3.72;100.00;98440.41;5035931;28;20567;-69
2023/12/17 09:38:42;;;;;;;19.43;8.50;;;;;;;3.89;100.00;98448.16;5036192;28;20211;-69
2023/12/17 09:41:09;;;;;;;37.20;11.43;;;;;;;3.68;100.00;98449.34;5035942;28;20241;-69
2023/12/17 09:43:35;;;;;;;21.23;8.80;;;;;;;4.09;100.00;98452.31;5035371;28;20213;-69
2023/12/17 09:46:02;;;;;;;23.87;8.50;;;;;;;4.04;100.00;98457.78;5036155;28;20241;-69
2023/12/17 09:48:29;;;;;;;15.97;8.33;;;;;;;3.73;100.00;98464.75;5036448;28;20217;-68
2023/12/17 09:50:57;;;;;;;16.70;6.40;;;;;;;4.29;100.00;98458.97;5034323;28;20655;-68
2023/12/17 09:53:24;;;;;;;15.43;8.03;;;;;;;4.12;100.00;98460.81;5033249;28;20894;-69
2023/12/17 09:55:50;;;;;;;13.93;6.50;;;;;;;3.83;100.00;98464.16;5034063;28;20196;-69
2023/12/17 09:58:17;;;;;;;9.03;5.17;;;;;;;4.00;100.00;98461.47;5034238;28;20211;-69
2023/12/17 10:00:43;;;;;;;11.83;5.70;;;;;;;4.21;100.00;98455.06;5035497;28;20200;-70
2023/12/17 10:03:12;;;;;;;12.27;5.17;;;;;;;3.87;100.00;98449.19;5035647;28;20691;-69
2023/12/17 10:05:39;;;;;;;11.60;5.37;;;;;;;4.29;100.00;98443.28;5034982;28;20231;-69
2023/12/17 10:08:07;;;;;;;12.57;6.00;;;;;;;4.42;100.00;98441.69;5034200;28;20732;-66
2023/12/17 10:10:34;;;;;;;10.13;5.30;;;;;;;4.45;100.00;98440.66;5029621;28;20208;-70
2023/12/17 10:13:00;;;;;;;17.93;5.90;;;;;;;4.35;100.00;98432.53;5034524;28;20212;-70
2023/12/17 10:15:27;;;;;;;17.57;6.60;;;;;;;4.43;100.00;98437.28;5033530;28;20219;-70
2023/12/17 10:17:54;;;;;;;12.30;6.00;;;;;;;4.58;100.00;98433.81;5033145;28;20221;-68
2023/12/17 10:20:20;;;;;;;14.10;7.23;;;;;;;5.00;100.00;98433.03;5033270;28;20319;-67
2023/12/17 10:22:57;;;;;;;11.07;5.67;;;;;;;5.32;100.00;98424.09;5033873;28;20390;-70
2023/12/17 10:25:26;;;;;;;14.50;6.03;;;;;;;5.38;100.00;98428.94;5032922;28;20234;-69
2023/12/17 10:27:56;;;;;;;10.67;5.20;;;;;;;5.52;100.00;98419.34;5034487;28;20260;-69
2023/12/17 10:30:29;;;;;;;10.53;5.50;;;;;;;5.48;100.00;98419.63;5031439;28;20274;-69
2023/12/17 10:32:56;;;;;;;9.27;5.03;;;;;;;5.28;100.00;98414.75;5034700;28;20204;-71
2023/12/17 10:35:24;;;;;;;10.03;5.20;;;;;;;5.47;100.00;98410.09;5033553;28;20247;-69
2023/12/17 10:37:53;;;;;;;11.27;5.93;;;;;;;5.97;100.00;98407.81;5034326;28;20210;-70
2023/12/17 10:40:21;;;;;;;9.23;5.17;;;;;;;6.32;100.00;98391.56;5032833;28;20683;-70
2023/12/17 10:42:49;;;;;;;11.20;5.53;;;;;;;5.97;100.00;98397.34;5033540;28;20314;-69
2023/12/17 10:45:18;;;;;;;14.27;5.43;;;;;;;5.87;100.00;98394.50;5034138;28;20265;-69
2023/12/17 10:47:47;;;;;;;12.93;6.17;;;;;;;6.08;100.00;98391.34;5032109;28;20208;-71
2023/12/17 10:50:15;;;;;;;12.87;5.50;;;;;;;5.62;100.00;98391.66;5032719;28;20730;-69
2023/12/17 10:52:42;;;;;;;9.43;4.83;;;;;;;5.35;100.00;98397.75;5032247;28;20226;-70
2023/12/17 10:55:09;;;;;;;10.10;5.10;;;;;;;5.70;100.00;98394.69;5032109;28;20200;-69
2023/12/17 10:57:37;;;;;;;11.00;4.90;;;;;;;5.16;100.00;98391.13;5033808;28;20675;-68
2023/12/17 11:00:09;;;;;;;10.40;4.87;;;;;;;5.75;100.00;98389.13;5034804;28;20589;-68
2023/12/17 11:02:36;;;;;;;11.33;5.50;;;;;;;5.81;100.00;98386.19;5033569;28;20244;-71
2023/12/17 11:05:02;;;;;;;9.53;5.37;;;;;;;5.75;100.00;98383.91;5034038;28;20229;-67
2023/12/17 11:07:30;;;;;;;7.50;4.23;;;;;;;5.57;100.00;98378.03;5028896;28;20578;-69
2023/12/17 11:09:58;;;;;;;10.70;4.40;;;;;;;5.57;100.00;98378.03;5034855;28;20205;-70
2023/12/17 11:12:25;;;;;;;10.50;5.13;;;;;;;5.86;100.00;98371.88;5036899;28;20229;-70
2023/12/17 11:14:52;;;;;;;14.67;5.33;;;;;;;6.09;100.00;98364.22;5036921;28;20263;-71
2023/12/17 11:17:21;;;;;;;9.43;4.67;;;;;;;6.44;100.00;98362.78;5036735;28;20243;-69
2023/12/17 11:19:56;;;;;;;8.37;4.30;;;;;;;6.77;100.00;98363.16;5036574;28;20220;-68
2023/12/17 11:22:23;;;;;;;14.10;5.00;;;;;;;6.61;100.00;98354.66;5035123;28;20228;-70
2023/12/17 11:24:50;;;;;;;7.67;4.27;;;;;;;6.47;100.00;98354.72;5034719;28;20777;-69